sensor_id;sensor_type;location;lat;lon;timestamp;P1;durP1;ratioP1;P2;durP2;ratioP2
38581;SDS011;24349;53.720;10.014;2022-07-23T00:01:17;7.70;;;2.20;;
38581;SDS011;24349;53.720;10.014;2022-07-23T00:03:43;7.00;;;2.38;;
38581;SDS011;24349;53.720;10.014;2022-07-23T00:06:09;7.05;;;2.45;;
38581;SDS011;24349;53.720;10.014;2022-07-23T00:08:34;9.48;;;2.50;;
38581;SDS011;24349;53.720;10.014;2022-07-23T00:11:00;5.38;;;1.90;;
38581;SDS011;24349;53.720;10.014;2022-07-23T00:13:26;8.20;;;2.47;;
38581;SDS011;24349;53.720;10.014;2022-07-23T00:15:52;6.63;;;2.08;;
38581;SDS011;24349;53.720;10.014;2022-07-23T00:18:18;6.40;;;2.35;;
38581;SDS011;24349;53.720;10.014;2022-07-23T00:20:44;4.88;;;2.13;;
38581;SDS011;24349;53.720;10.014;2022-07-23T00:23:09;7.80;;;2.20;;
38581;SDS011;24349;53.720;10.014;2022-07-23T00:25:35;6.43;;;2.30;;
38581;SDS011;24349;53.720;10.014;2022-07-23T00:28:01;7.10;;;2.22;;
38581;SDS011;24349;53.720;10.014;2022-07-23T00:30:27;8.15;;;2.65;;
38581;SDS011;24349;53.720;10.014;2022-07-23T00:32:58;6.95;;;2.33;;
38581;SDS011;24349;53.720;10.014;2022-07-23T00:35:26;7.97;;;2.28;;
38581;SDS011;24349;53.720;10.014;2022-07-23T00:37:54;6.47;;;2.20;;
38581;SDS011;24349;53.720;10.014;2022-07-23T00:40:21;6.07;;;2.30;;
38581;SDS011;24349;53.720;10.014;2022-07-23T00:42:47;5.53;;;2.20;;
38581;SDS011;24349;53.720;10.014;2022-07-23T00:45:12;6.40;;;2.30;;
38581;SDS011;24349;53.720;10.014;2022-07-23T00:47:38;4.65;;;1.90;;
38581;SDS011;24349;53.720;10.014;2022-07-23T00:50:04;6.97;;;2.25;;
38581;SDS011;24349;53.720;10.014;2022-07-23T00:52:32;6.40;;;1.90;;
38581;SDS011;24349;53.720;10.014;2022-07-23T00:54:58;6.93;;;2.47;;
38581;SDS011;24349;53.720;10.014;2022-07-23T00:57:24;7.32;;;2.10;;
38581;SDS011;24349;53.720;10.014;2022-07-23T00:59:50;5.78;;;2.20;;
38581;SDS011;24349;53.720;10.014;2022-07-23T01:02:16;5.55;;;1.88;;
38581;SDS011;24349;53.720;10.014;2022-07-23T01:04:41;6.55;;;2.05;;
38581;SDS011;24349;53.720;10.014;2022-07-23T01:07:07;6.22;;;1.85;;
38581;SDS011;24349;53.720;10.014;2022-07-23T01:09:33;3.35;;;1.52;;
38581;SDS011;24349;53.720;10.014;2022-07-23T01:11:59;6.43;;;1.92;;
38581;SDS011;24349;53.720;10.014;2022-07-23T01:14:25;5.78;;;1.63;;
38581;SDS011;24349;53.720;10.014;2022-07-23T01:16:51;6.65;;;1.67;;
38581;SDS011;24349;53.720;10.014;2022-07-23T01:19:17;7.80;;;1.95;;
38581;SDS011;24349;53.720;10.014;2022-07-23T01:21:48;5.65;;;1.60;;
38581;SDS011;24349;53.720;10.014;2022-07-23T01:24:15;7.18;;;1.90;;
38581;SDS011;24349;53.720;10.014;2022-07-23T01:26:44;5.05;;;1.90;;
38581;SDS011;24349;53.720;10.014;2022-07-23T01:29:11;6.47;;;1.80;;
38581;SDS011;24349;53.720;10.014;2022-07-23T01:31:37;8.20;;;2.20;;
38581;SDS011;24349;53.720;10.014;2022-07-23T01:34:03;4.63;;;1.67;;
38581;SDS011;24349;53.720;10.014;2022-07-23T01:36:29;5.22;;;1.60;;
38581;SDS011;24349;53.720;10.014;2022-07-23T01:38:55;5.32;;;2.00;;
38581;SDS011;24349;53.720;10.014;2022-07-23T01:41:21;7.53;;;1.80;;
38581;SDS011;24349;53.720;10.014;2022-07-23T01:43:47;5.25;;;1.90;;
38581;SDS011;24349;53.720;10.014;2022-07-23T01:46:13;8.05;;;2.03;;
38581;SDS011;24349;53.720;10.014;2022-07-23T01:48:39;4.60;;;2.10;;
38581;SDS011;24349;53.720;10.014;2022-07-23T01:51:05;6.18;;;1.98;;
38581;SDS011;24349;53.720;10.014;2022-07-23T01:53:31;4.80;;;1.60;;
38581;SDS011;24349;53.720;10.014;2022-07-23T01:55:59;7.07;;;2.00;;
38581;SDS011;24349;53.720;10.014;2022-07-23T01:58:26;5.55;;;1.92;;
38581;SDS011;24349;53.720;10.014;2022-07-23T02:00:52;6.32;;;2.15;;
38581;SDS011;24349;53.720;10.014;2022-07-23T02:03:19;5.10;;;2.00;;
38581;SDS011;24349;53.720;10.014;2022-07-23T02:05:44;6.90;;;1.90;;
38581;SDS011;24349;53.720;10.014;2022-07-23T02:08:10;6.65;;;1.90;;
38581;SDS011;24349;53.720;10.014;2022-07-23T02:10:36;5.32;;;1.80;;
38581;SDS011;24349;53.720;10.014;2022-07-23T02:13:02;5.05;;;1.38;;
38581;SDS011;24349;53.720;10.014;2022-07-23T02:15:28;6.60;;;1.95;;
38581;SDS011;24349;53.720;10.014;2022-07-23T02:17:54;5.13;;;1.95;;
38581;SDS011;24349;53.720;10.014;2022-07-23T02:20:20;5.55;;;1.70;;
38581;SDS011;24349;53.720;10.014;2022-07-23T02:22:47;5.85;;;1.83;;
38581;SDS011;24349;53.720;10.014;2022-07-23T02:25:13;5.70;;;2.10;;
38581;SDS011;24349;53.720;10.014;2022-07-23T02:27:38;5.65;;;1.90;;
38581;SDS011;24349;53.720;10.014;2022-07-23T02:30:04;6.97;;;2.28;;
38581;SDS011;24349;53.720;10.014;2022-07-23T02:32:31;6.13;;;1.77;;
38581;SDS011;24349;53.720;10.014;2022-07-23T02:34:57;4.57;;;2.00;;
38581;SDS011;24349;53.720;10.014;2022-07-23T02:37:22;5.07;;;1.80;;
38581;SDS011;24349;53.720;10.014;2022-07-23T02:39:49;6.75;;;2.42;;
38581;SDS011;24349;53.720;10.014;2022-07-23T02:42:15;5.43;;;1.95;;
38581;SDS011;24349;53.720;10.014;2022-07-23T02:44:41;5.20;;;1.88;;
38581;SDS011;24349;53.720;10.014;2022-07-23T02:47:07;6.78;;;2.00;;
38581;SDS011;24349;53.720;10.014;2022-07-23T02:49:33;6.03;;;2.00;;
38581;SDS011;24349;53.720;10.014;2022-07-23T02:51:58;5.63;;;1.88;;
38581;SDS011;24349;53.720;10.014;2022-07-23T02:54:24;5.10;;;2.40;;
38581;SDS011;24349;53.720;10.014;2022-07-23T02:56:50;4.18;;;1.85;;
38581;SDS011;24349;53.720;10.014;2022-07-23T02:59:16;7.32;;;2.25;;
38581;SDS011;24349;53.720;10.014;2022-07-23T03:01:42;5.45;;;2.35;;
38581;SDS011;24349;53.720;10.014;2022-07-23T03:04:09;5.15;;;2.28;;
38581;SDS011;24349;53.720;10.014;2022-07-23T03:06:35;7.65;;;2.40;;
38581;SDS011;24349;53.720;10.014;2022-07-23T03:09:01;6.63;;;2.05;;
38581;SDS011;24349;53.720;10.014;2022-07-23T03:11:27;5.68;;;2.33;;
38581;SDS011;24349;53.720;10.014;2022-07-23T03:13:53;7.70;;;2.53;;
38581;SDS011;24349;53.720;10.014;2022-07-23T03:16:19;6.93;;;2.45;;
38581;SDS011;24349;53.720;10.014;2022-07-23T03:18:44;5.18;;;1.90;;
38581;SDS011;24349;53.720;10.014;2022-07-23T03:21:10;6.97;;;2.13;;
38581;SDS011;24349;53.720;10.014;2022-07-23T03:23:36;4.72;;;1.95;;
38581;SDS011;24349;53.720;10.014;2022-07-23T03:26:02;4.65;;;2.10;;
38581;SDS011;24349;53.720;10.014;2022-07-23T03:28:27;4.82;;;1.70;;
38581;SDS011;24349;53.720;10.014;2022-07-23T03:30:53;4.18;;;1.80;;
38581;SDS011;24349;53.720;10.014;2022-07-23T03:33:19;4.93;;;1.80;;
38581;SDS011;24349;53.720;10.014;2022-07-23T03:35:46;7.07;;;2.00;;
38581;SDS011;24349;53.720;10.014;2022-07-23T03:38:12;5.57;;;2.00;;
38581;SDS011;24349;53.720;10.014;2022-07-23T03:40:38;7.18;;;2.20;;
38581;SDS011;24349;53.720;10.014;2022-07-23T03:43:04;5.88;;;2.22;;
38581;SDS011;24349;53.720;10.014;2022-07-23T03:45:30;6.35;;;2.20;;
38581;SDS011;24349;53.720;10.014;2022-07-23T03:47:56;4.25;;;1.70;;
38581;SDS011;24349;53.720;10.014;2022-07-23T03:50:21;4.30;;;1.75;;
38581;SDS011;24349;53.720;10.014;2022-07-23T03:52:47;5.45;;;2.00;;
38581;SDS011;24349;53.720;10.014;2022-07-23T03:55:13;4.15;;;1.77;;
38581;SDS011;24349;53.720;10.014;2022-07-23T03:57:39;5.45;;;1.80;;
38581;SDS011;24349;53.720;10.014;2022-07-23T04:00:05;6.97;;;2.20;;
38581;SDS011;24349;53.720;10.014;2022-07-23T04:02:34;4.80;;;2.08;;
38581;SDS011;24349;53.720;10.014;2022-07-23T04:05:00;7.30;;;2.50;;
38581;SDS011;24349;53.720;10.014;2022-07-23T04:07:25;5.03;;;2.15;;
38581;SDS011;24349;53.720;10.014;2022-07-23T04:09:51;5.07;;;2.05;;
38581;SDS011;24349;53.720;10.014;2022-07-23T04:12:17;6.05;;;2.35;;
38581;SDS011;24349;53.720;10.014;2022-07-23T04:14:43;6.47;;;2.53;;
38581;SDS011;24349;53.720;10.014;2022-07-23T04:17:09;5.60;;;2.30;;
38581;SDS011;24349;53.720;10.014;2022-07-23T04:19:34;5.55;;;2.20;;
38581;SDS011;24349;53.720;10.014;2022-07-23T04:22:04;7.18;;;2.20;;
38581;SDS011;24349;53.720;10.014;2022-07-23T04:24:31;7.32;;;2.85;;
38581;SDS011;24349;53.720;10.014;2022-07-23T04:26:57;4.50;;;2.03;;
38581;SDS011;24349;53.720;10.014;2022-07-23T04:29:23;5.18;;;2.15;;
38581;SDS011;24349;53.720;10.014;2022-07-23T04:31:49;6.00;;;1.92;;
38581;SDS011;24349;53.720;10.014;2022-07-23T04:34:15;4.15;;;1.98;;
38581;SDS011;24349;53.720;10.014;2022-07-23T04:36:41;6.93;;;2.00;;
38581;SDS011;24349;53.720;10.014;2022-07-23T04:39:07;5.82;;;1.90;;
38581;SDS011;24349;53.720;10.014;2022-07-23T04:41:32;6.35;;;1.95;;
38581;SDS011;24349;53.720;10.014;2022-07-23T04:43:59;6.40;;;1.77;;
38581;SDS011;24349;53.720;10.014;2022-07-23T04:46:25;6.07;;;1.70;;
38581;SDS011;24349;53.720;10.014;2022-07-23T04:48:51;4.82;;;1.88;;
38581;SDS011;24349;53.720;10.014;2022-07-23T04:51:16;6.93;;;2.28;;
38581;SDS011;24349;53.720;10.014;2022-07-23T04:53:42;5.25;;;1.70;;
38581;SDS011;24349;53.720;10.014;2022-07-23T04:56:08;3.40;;;1.70;;
38581;SDS011;24349;53.720;10.014;2022-07-23T04:58:34;4.90;;;1.90;;
38581;SDS011;24349;53.720;10.014;2022-07-23T05:00:59;7.38;;;1.73;;
38581;SDS011;24349;53.720;10.014;2022-07-23T05:03:25;6.63;;;2.08;;
38581;SDS011;24349;53.720;10.014;2022-07-23T05:05:51;4.00;;;2.03;;
38581;SDS011;24349;53.720;10.014;2022-07-23T05:08:17;4.65;;;2.20;;
38581;SDS011;24349;53.720;10.014;2022-07-23T05:10:42;5.07;;;2.22;;
38581;SDS011;24349;53.720;10.014;2022-07-23T05:13:08;7.57;;;2.60;;
38581;SDS011;24349;53.720;10.014;2022-07-23T05:15:34;5.10;;;1.90;;
38581;SDS011;24349;53.720;10.014;2022-07-23T05:17:59;6.00;;;2.13;;
38581;SDS011;24349;53.720;10.014;2022-07-23T05:20:25;3.90;;;1.75;;
38581;SDS011;24349;53.720;10.014;2022-07-23T05:22:51;4.60;;;1.77;;
38581;SDS011;24349;53.720;10.014;2022-07-23T05:25:16;3.50;;;1.70;;
38581;SDS011;24349;53.720;10.014;2022-07-23T05:27:42;4.72;;;1.70;;
38581;SDS011;24349;53.720;10.014;2022-07-23T05:30:08;3.95;;;1.60;;
38581;SDS011;24349;53.720;10.014;2022-07-23T05:32:35;4.32;;;1.77;;
38581;SDS011;24349;53.720;10.014;2022-07-23T05:35:02;6.60;;;2.10;;
38581;SDS011;24349;53.720;10.014;2022-07-23T05:37:29;5.88;;;1.70;;
38581;SDS011;24349;53.720;10.014;2022-07-23T05:39:54;6.03;;;1.70;;
38581;SDS011;24349;53.720;10.014;2022-07-23T05:42:20;5.30;;;1.83;;
38581;SDS011;24349;53.720;10.014;2022-07-23T05:44:46;3.15;;;1.30;;
38581;SDS011;24349;53.720;10.014;2022-07-23T05:47:12;5.47;;;1.60;;
38581;SDS011;24349;53.720;10.014;2022-07-23T05:49:38;6.50;;;1.70;;
38581;SDS011;24349;53.720;10.014;2022-07-23T05:52:07;4.82;;;1.30;;
38581;SDS011;24349;53.720;10.014;2022-07-23T05:54:36;4.20;;;1.50;;
38581;SDS011;24349;53.720;10.014;2022-07-23T05:57:02;4.47;;;1.50;;
38581;SDS011;24349;53.720;10.014;2022-07-23T05:59:28;4.88;;;1.60;;
38581;SDS011;24349;53.720;10.014;2022-07-23T06:01:54;4.13;;;1.33;;
38581;SDS011;24349;53.720;10.014;2022-07-23T06:04:20;2.95;;;1.40;;
38581;SDS011;24349;53.720;10.014;2022-07-23T06:06:45;3.08;;;1.35;;
38581;SDS011;24349;53.720;10.014;2022-07-23T06:09:11;3.53;;;1.40;;
38581;SDS011;24349;53.720;10.014;2022-07-23T06:11:38;7.85;;;3.97;;
38581;SDS011;24349;53.720;10.014;2022-07-23T06:14:04;3.95;;;1.50;;
38581;SDS011;24349;53.720;10.014;2022-07-23T06:16:30;4.07;;;1.70;;
38581;SDS011;24349;53.720;10.014;2022-07-23T06:18:56;4.22;;;1.67;;
38581;SDS011;24349;53.720;10.014;2022-07-23T06:21:22;4.28;;;1.60;;
38581;SDS011;24349;53.720;10.014;2022-07-23T06:23:47;4.38;;;1.60;;
38581;SDS011;24349;53.720;10.014;2022-07-23T06:26:13;5.63;;;1.60;;
38581;SDS011;24349;53.720;10.014;2022-07-23T06:28:39;6.35;;;1.83;;
38581;SDS011;24349;53.720;10.014;2022-07-23T06:31:04;5.15;;;1.52;;
38581;SDS011;24349;53.720;10.014;2022-07-23T06:33:30;5.38;;;1.65;;
38581;SDS011;24349;53.720;10.014;2022-07-23T06:35:56;5.15;;;1.90;;
38581;SDS011;24349;53.720;10.014;2022-07-23T06:38:21;5.10;;;1.98;;
38581;SDS011;24349;53.720;10.014;2022-07-23T06:40:47;6.65;;;2.08;;
38581;SDS011;24349;53.720;10.014;2022-07-23T06:43:12;4.45;;;1.60;;
38581;SDS011;24349;53.720;10.014;2022-07-23T06:45:38;3.95;;;1.73;;
38581;SDS011;24349;53.720;10.014;2022-07-23T06:48:04;4.80;;;1.58;;
38581;SDS011;24349;53.720;10.014;2022-07-23T06:50:29;4.90;;;1.20;;
38581;SDS011;24349;53.720;10.014;2022-07-23T06:52:55;5.47;;;1.30;;
38581;SDS011;24349;53.720;10.014;2022-07-23T06:55:21;4.93;;;1.30;;
38581;SDS011;24349;53.720;10.014;2022-07-23T06:57:46;3.70;;;1.13;;
38581;SDS011;24349;53.720;10.014;2022-07-23T07:00:12;4.43;;;1.30;;
38581;SDS011;24349;53.720;10.014;2022-07-23T07:02:38;3.38;;;1.30;;
38581;SDS011;24349;53.720;10.014;2022-07-23T07:05:04;3.08;;;1.40;;
38581;SDS011;24349;53.720;10.014;2022-07-23T07:07:30;4.00;;;1.33;;
38581;SDS011;24349;53.720;10.014;2022-07-23T07:09:56;5.35;;;1.52;;
38581;SDS011;24349;53.720;10.014;2022-07-23T07:12:21;3.35;;;1.10;;
38581;SDS011;24349;53.720;10.014;2022-07-23T07:14:47;2.95;;;1.15;;
38581;SDS011;24349;53.720;10.014;2022-07-23T07:17:13;6.82;;;1.88;;
38581;SDS011;24349;53.720;10.014;2022-07-23T07:19:40;5.35;;;1.58;;
38581;SDS011;24349;53.720;10.014;2022-07-23T07:22:06;4.88;;;1.10;;
38581;SDS011;24349;53.720;10.014;2022-07-23T07:24:31;4.25;;;1.35;;
38581;SDS011;24349;53.720;10.014;2022-07-23T07:26:57;5.13;;;1.50;;
38581;SDS011;24349;53.720;10.014;2022-07-23T07:29:22;6.38;;;1.92;;
38581;SDS011;24349;53.720;10.014;2022-07-23T07:31:48;5.80;;;1.80;;
38581;SDS011;24349;53.720;10.014;2022-07-23T07:34:14;6.28;;;2.10;;
38581;SDS011;24349;53.720;10.014;2022-07-23T07:36:39;7.53;;;2.00;;
38581;SDS011;24349;53.720;10.014;2022-07-23T07:39:05;6.55;;;2.03;;
38581;SDS011;24349;53.720;10.014;2022-07-23T07:41:31;8.32;;;2.92;;
38581;SDS011;24349;53.720;10.014;2022-07-23T07:43:57;6.05;;;1.92;;
38581;SDS011;24349;53.720;10.014;2022-07-23T07:46:23;6.30;;;1.88;;
38581;SDS011;24349;53.720;10.014;2022-07-23T07:48:49;4.90;;;1.40;;
38581;SDS011;24349;53.720;10.014;2022-07-23T07:51:15;5.90;;;1.40;;
38581;SDS011;24349;53.720;10.014;2022-07-23T07:53:41;3.92;;;1.42;;
38581;SDS011;24349;53.720;10.014;2022-07-23T07:56:06;7.40;;;1.48;;
38581;SDS011;24349;53.720;10.014;2022-07-23T07:58:32;4.72;;;1.40;;
38581;SDS011;24349;53.720;10.014;2022-07-23T08:00:58;3.78;;;1.30;;
38581;SDS011;24349;53.720;10.014;2022-07-23T08:03:25;5.32;;;1.85;;
38581;SDS011;24349;53.720;10.014;2022-07-23T08:05:51;7.80;;;1.50;;
38581;SDS011;24349;53.720;10.014;2022-07-23T08:08:16;5.47;;;1.50;;
38581;SDS011;24349;53.720;10.014;2022-07-23T08:10:42;4.43;;;1.20;;
38581;SDS011;24349;53.720;10.014;2022-07-23T08:13:11;3.65;;;1.20;;
38581;SDS011;24349;53.720;10.014;2022-07-23T08:15:39;5.47;;;1.40;;
38581;SDS011;24349;53.720;10.014;2022-07-23T08:18:05;4.30;;;1.30;;
38581;SDS011;24349;53.720;10.014;2022-07-23T08:20:30;5.15;;;1.40;;
38581;SDS011;24349;53.720;10.014;2022-07-23T08:23:02;6.72;;;2.40;;
38581;SDS011;24349;53.720;10.014;2022-07-23T08:25:33;5.80;;;1.67;;
38581;SDS011;24349;53.720;10.014;2022-07-23T08:28:00;4.53;;;1.42;;
38581;SDS011;24349;53.720;10.014;2022-07-23T08:30:27;6.70;;;1.63;;
38581;SDS011;24349;53.720;10.014;2022-07-23T08:32:58;5.75;;;2.03;;
38581;SDS011;24349;53.720;10.014;2022-07-23T08:35:27;11.10;;;1.83;;
38581;SDS011;24349;53.720;10.014;2022-07-23T08:38:00;5.07;;;1.50;;
38581;SDS011;24349;53.720;10.014;2022-07-23T08:40:32;4.57;;;1.50;;
38581;SDS011;24349;53.720;10.014;2022-07-23T08:43:00;4.63;;;1.48;;
38581;SDS011;24349;53.720;10.014;2022-07-23T08:45:31;8.13;;;2.22;;
38581;SDS011;24349;53.720;10.014;2022-07-23T08:50:30;6.20;;;1.77;;
38581;SDS011;24349;53.720;10.014;2022-07-23T08:52:56;4.88;;;1.30;;
38581;SDS011;24349;53.720;10.014;2022-07-23T08:55:24;5.18;;;1.30;;
38581;SDS011;24349;53.720;10.014;2022-07-23T08:57:51;4.22;;;1.40;;
38581;SDS011;24349;53.720;10.014;2022-07-23T09:00:18;5.07;;;1.30;;
38581;SDS011;24349;53.720;10.014;2022-07-23T09:02:46;3.63;;;1.30;;
38581;SDS011;24349;53.720;10.014;2022-07-23T09:05:12;3.63;;;1.30;;
38581;SDS011;24349;53.720;10.014;2022-07-23T09:13:30;5.00;;;1.40;;
38581;SDS011;24349;53.720;10.014;2022-07-23T09:16:15;5.80;;;1.33;;
38581;SDS011;24349;53.720;10.014;2022-07-23T09:21:21;4.32;;;1.35;;
38581;SDS011;24349;53.720;10.014;2022-07-23T09:26:25;3.80;;;1.20;;
38581;SDS011;24349;53.720;10.014;2022-07-23T09:34:15;4.75;;;1.20;;
38581;SDS011;24349;53.720;10.014;2022-07-23T09:36:48;2.53;;;1.02;;
38581;SDS011;24349;53.720;10.014;2022-07-23T09:39:22;4.47;;;1.55;;
38581;SDS011;24349;53.720;10.014;2022-07-23T09:41:51;4.53;;;1.20;;
38581;SDS011;24349;53.720;10.014;2022-07-23T09:44:18;3.42;;;1.30;;
38581;SDS011;24349;53.720;10.014;2022-07-23T09:46:46;3.15;;;1.13;;
38581;SDS011;24349;53.720;10.014;2022-07-23T09:51:47;2.95;;;1.10;;
38581;SDS011;24349;53.720;10.014;2022-07-23T09:54:23;6.15;;;1.33;;
38581;SDS011;24349;53.720;10.014;2022-07-23T09:56:55;2.53;;;0.80;;
38581;SDS011;24349;53.720;10.014;2022-07-23T09:59:22;2.53;;;1.00;;
38581;SDS011;24349;53.720;10.014;2022-07-23T10:01:51;3.25;;;1.15;;
38581;SDS011;24349;53.720;10.014;2022-07-23T10:04:20;2.15;;;0.80;;
38581;SDS011;24349;53.720;10.014;2022-07-23T10:06:48;3.90;;;1.08;;
38581;SDS011;24349;53.720;10.014;2022-07-23T10:09:24;3.85;;;1.10;;
38581;SDS011;24349;53.720;10.014;2022-07-23T10:11:55;2.75;;;0.98;;
38581;SDS011;24349;53.720;10.014;2022-07-23T10:14:40;2.97;;;1.00;;
38581;SDS011;24349;53.720;10.014;2022-07-23T10:17:06;3.08;;;1.17;;
38581;SDS011;24349;53.720;10.014;2022-07-23T10:19:33;3.13;;;0.93;;
38581;SDS011;24349;53.720;10.014;2022-07-23T10:22:02;3.17;;;1.10;;
38581;SDS011;24349;53.720;10.014;2022-07-23T10:24:42;4.00;;;1.43;;
38581;SDS011;24349;53.720;10.014;2022-07-23T10:29:47;4.88;;;1.23;;
38581;SDS011;24349;53.720;10.014;2022-07-23T10:37:54;4.00;;;1.30;;
38581;SDS011;24349;53.720;10.014;2022-07-23T10:40:27;2.92;;;1.25;;
38581;SDS011;24349;53.720;10.014;2022-07-23T10:42:58;4.03;;;1.30;;
38581;SDS011;24349;53.720;10.014;2022-07-23T10:45:28;2.83;;;1.00;;
38581;SDS011;24349;53.720;10.014;2022-07-23T10:51:06;2.08;;;0.80;;
38581;SDS011;24349;53.720;10.014;2022-07-23T10:59:16;3.63;;;1.10;;
38581;SDS011;24349;53.720;10.014;2022-07-23T11:01:43;4.28;;;1.48;;
38581;SDS011;24349;53.720;10.014;2022-07-23T11:04:08;2.63;;;0.90;;
38581;SDS011;24349;53.720;10.014;2022-07-23T11:07:18;2.40;;;0.80;;
38581;SDS011;24349;53.720;10.014;2022-07-23T11:17:26;2.63;;;0.80;;
38581;SDS011;24349;53.720;10.014;2022-07-23T11:25:13;3.15;;;0.95;;
38581;SDS011;24349;53.720;10.014;2022-07-23T11:27:53;2.75;;;1.00;;
38581;SDS011;24349;53.720;10.014;2022-07-23T11:32:51;4.22;;;1.23;;
38581;SDS011;24349;53.720;10.014;2022-07-23T11:35:33;4.88;;;1.30;;
38581;SDS011;24349;53.720;10.014;2022-07-23T11:38:04;7.55;;;1.30;;
38581;SDS011;24349;53.720;10.014;2022-07-23T11:40:43;4.47;;;0.90;;
38581;SDS011;24349;53.720;10.014;2022-07-23T11:43:10;4.20;;;1.10;;
38581;SDS011;24349;53.720;10.014;2022-07-23T11:45:38;3.95;;;1.10;;
38581;SDS011;24349;53.720;10.014;2022-07-23T11:48:06;2.67;;;0.80;;
38581;SDS011;24349;53.720;10.014;2022-07-23T11:50:33;3.10;;;0.90;;
38581;SDS011;24349;53.720;10.014;2022-07-23T11:52:59;3.10;;;1.10;;
38581;SDS011;24349;53.720;10.014;2022-07-23T11:55:25;2.30;;;0.73;;
38581;SDS011;24349;53.720;10.014;2022-07-23T11:57:53;3.20;;;1.00;;
38581;SDS011;24349;53.720;10.014;2022-07-23T12:00:21;6.35;;;1.20;;
38581;SDS011;24349;53.720;10.014;2022-07-23T12:02:50;2.58;;;1.23;;
38581;SDS011;24349;53.720;10.014;2022-07-23T12:05:24;3.80;;;1.08;;
38581;SDS011;24349;53.720;10.014;2022-07-23T12:07:53;3.17;;;1.02;;
38581;SDS011;24349;53.720;10.014;2022-07-23T12:10:21;3.78;;;1.02;;
38581;SDS011;24349;53.720;10.014;2022-07-23T12:12:52;3.17;;;0.90;;
38581;SDS011;24349;53.720;10.014;2022-07-23T12:15:23;4.80;;;1.02;;
38581;SDS011;24349;53.720;10.014;2022-07-23T12:17:51;3.20;;;0.90;;
38581;SDS011;24349;53.720;10.014;2022-07-23T12:20:23;4.28;;;1.20;;
38581;SDS011;24349;53.720;10.014;2022-07-23T12:22:52;4.05;;;1.00;;
38581;SDS011;24349;53.720;10.014;2022-07-23T12:25:22;4.07;;;1.00;;
38581;SDS011;24349;53.720;10.014;2022-07-23T12:30:25;2.78;;;0.80;;
38581;SDS011;24349;53.720;10.014;2022-07-23T12:32:54;2.58;;;0.90;;
38581;SDS011;24349;53.720;10.014;2022-07-23T12:35:22;3.53;;;0.90;;
38581;SDS011;24349;53.720;10.014;2022-07-23T12:37:58;3.15;;;0.88;;
38581;SDS011;24349;53.720;10.014;2022-07-23T12:40:30;2.67;;;0.90;;
38581;SDS011;24349;53.720;10.014;2022-07-23T12:42:59;2.55;;;0.90;;
38581;SDS011;24349;53.720;10.014;2022-07-23T12:45:41;2.97;;;1.17;;
38581;SDS011;24349;53.720;10.014;2022-07-23T12:48:14;5.55;;;1.00;;
38581;SDS011;24349;53.720;10.014;2022-07-23T12:51:00;2.20;;;0.73;;
38581;SDS011;24349;53.720;10.014;2022-07-23T12:53:43;1.90;;;0.70;;
38581;SDS011;24349;53.720;10.014;2022-07-23T12:56:20;2.15;;;0.80;;
38581;SDS011;24349;53.720;10.014;2022-07-23T12:58:52;1.90;;;0.77;;
38581;SDS011;24349;53.720;10.014;2022-07-23T13:01:36;2.38;;;0.80;;
38581;SDS011;24349;53.720;10.014;2022-07-23T13:04:07;1.73;;;0.80;;
38581;SDS011;24349;53.720;10.014;2022-07-23T13:06:36;2.60;;;0.75;;
38581;SDS011;24349;53.720;10.014;2022-07-23T13:09:29;2.70;;;1.00;;
38581;SDS011;24349;53.720;10.014;2022-07-23T13:11:56;2.35;;;0.77;;
38581;SDS011;24349;53.720;10.014;2022-07-23T13:14:23;2.88;;;0.80;;
38581;SDS011;24349;53.720;10.014;2022-07-23T13:16:50;2.13;;;0.68;;
38581;SDS011;24349;53.720;10.014;2022-07-23T13:19:16;1.80;;;0.85;;
38581;SDS011;24349;53.720;10.014;2022-07-23T13:21:42;2.58;;;0.80;;
38581;SDS011;24349;53.720;10.014;2022-07-23T13:24:09;3.25;;;1.10;;
38581;SDS011;24349;53.720;10.014;2022-07-23T13:26:35;2.95;;;1.15;;
38581;SDS011;24349;53.720;10.014;2022-07-23T13:29:02;4.88;;;1.10;;
38581;SDS011;24349;53.720;10.014;2022-07-23T13:31:27;3.75;;;1.38;;
38581;SDS011;24349;53.720;10.014;2022-07-23T13:33:53;6.45;;;1.20;;
38581;SDS011;24349;53.720;10.014;2022-07-23T13:36:19;2.95;;;1.23;;
38581;SDS011;24349;53.720;10.014;2022-07-23T13:38:44;5.45;;;1.40;;
38581;SDS011;24349;53.720;10.014;2022-07-23T13:41:10;4.32;;;1.30;;
38581;SDS011;24349;53.720;10.014;2022-07-23T13:43:36;5.78;;;1.50;;
38581;SDS011;24349;53.720;10.014;2022-07-23T13:46:01;5.95;;;1.50;;
38581;SDS011;24349;53.720;10.014;2022-07-23T13:48:27;4.00;;;1.10;;
38581;SDS011;24349;53.720;10.014;2022-07-23T13:50:54;3.53;;;1.25;;
38581;SDS011;24349;53.720;10.014;2022-07-23T13:53:21;5.88;;;1.88;;
38581;SDS011;24349;53.720;10.014;2022-07-23T13:55:52;7.03;;;1.73;;
38581;SDS011;24349;53.720;10.014;2022-07-23T13:58:18;3.97;;;1.20;;
38581;SDS011;24349;53.720;10.014;2022-07-23T14:00:46;4.63;;;1.00;;
38581;SDS011;24349;53.720;10.014;2022-07-23T14:03:15;4.47;;;1.20;;
38581;SDS011;24349;53.720;10.014;2022-07-23T14:05:41;3.42;;;1.00;;
38581;SDS011;24349;53.720;10.014;2022-07-23T14:08:07;1.92;;;0.80;;
38581;SDS011;24349;53.720;10.014;2022-07-23T14:10:33;3.17;;;0.80;;
38581;SDS011;24349;53.720;10.014;2022-07-23T14:12:59;4.15;;;1.10;;
38581;SDS011;24349;53.720;10.014;2022-07-23T14:15:25;5.40;;;1.00;;
38581;SDS011;24349;53.720;10.014;2022-07-23T14:17:52;2.60;;;0.90;;
38581;SDS011;24349;53.720;10.014;2022-07-23T14:20:19;5.43;;;1.35;;
38581;SDS011;24349;53.720;10.014;2022-07-23T14:22:45;2.63;;;1.00;;
38581;SDS011;24349;53.720;10.014;2022-07-23T14:25:11;4.07;;;1.27;;
38581;SDS011;24349;53.720;10.014;2022-07-23T14:27:37;2.78;;;1.10;;
38581;SDS011;24349;53.720;10.014;2022-07-23T14:30:03;4.20;;;1.10;;
38581;SDS011;24349;53.720;10.014;2022-07-23T14:32:31;2.75;;;1.05;;
38581;SDS011;24349;53.720;10.014;2022-07-23T14:34:57;3.85;;;1.02;;
38581;SDS011;24349;53.720;10.014;2022-07-23T14:37:22;3.42;;;1.10;;
38581;SDS011;24349;53.720;10.014;2022-07-23T14:39:49;2.42;;;0.90;;
38581;SDS011;24349;53.720;10.014;2022-07-23T14:42:15;3.00;;;1.30;;
38581;SDS011;24349;53.720;10.014;2022-07-23T14:44:41;3.40;;;1.33;;
38581;SDS011;24349;53.720;10.014;2022-07-23T14:47:07;2.63;;;0.90;;
38581;SDS011;24349;53.720;10.014;2022-07-23T14:49:33;5.55;;;1.45;;
38581;SDS011;24349;53.720;10.014;2022-07-23T14:51:59;2.42;;;0.98;;
38581;SDS011;24349;53.720;10.014;2022-07-23T14:54:26;2.47;;;0.90;;
38581;SDS011;24349;53.720;10.014;2022-07-23T14:56:53;3.70;;;1.25;;
38581;SDS011;24349;53.720;10.014;2022-07-23T14:59:20;2.65;;;1.00;;
38581;SDS011;24349;53.720;10.014;2022-07-23T15:01:46;3.28;;;1.20;;
38581;SDS011;24349;53.720;10.014;2022-07-23T15:04:11;4.38;;;1.15;;
38581;SDS011;24349;53.720;10.014;2022-07-23T15:06:37;2.67;;;0.90;;
38581;SDS011;24349;53.720;10.014;2022-07-23T15:09:04;3.33;;;1.05;;
38581;SDS011;24349;53.720;10.014;2022-07-23T15:11:30;3.38;;;0.93;;
38581;SDS011;24349;53.720;10.014;2022-07-23T15:13:58;2.05;;;0.93;;
38581;SDS011;24349;53.720;10.014;2022-07-23T15:16:28;3.30;;;1.00;;
38581;SDS011;24349;53.720;10.014;2022-07-23T15:18:54;2.45;;;1.00;;
38581;SDS011;24349;53.720;10.014;2022-07-23T15:21:20;2.75;;;1.15;;
38581;SDS011;24349;53.720;10.014;2022-07-23T15:23:47;3.90;;;1.08;;
38581;SDS011;24349;53.720;10.014;2022-07-23T15:26:13;2.13;;;1.08;;
38581;SDS011;24349;53.720;10.014;2022-07-23T15:28:40;2.90;;;1.00;;
38581;SDS011;24349;53.720;10.014;2022-07-23T15:31:06;3.08;;;1.00;;